Time;durP1;ratioP1;P1;durP2;ratioP2;P2;SDS_P1;SDS_P2;PMS_P1;PMS_P2;Temp;Humidity;BMP_temperature;BMP_pressure;BME280_temperature;BME280_humidity;BME280_pressure;Samples;Min_cycle;Max_cycle;Signal;HPM_P1;HPM_P2
2022/09/21 00:02:15;;;;;;;4.78;2.10;;;;;;;7.27;100.00;101641.38;5169691;28;20538;-73
2022/09/21 00:04:45;;;;;;;3.78;1.90;;;;;;;7.28;100.00;101643.09;5170245;28;20084;-73
2022/09/21 00:07:15;;;;;;;4.32;1.95;;;;;;;7.18;100.00;101649.19;5165016;28;20030;-73
2022/09/21 00:09:46;;;;;;;4.50;1.67;;;;;;;7.12;100.00;101654.44;5169354;28;20034;-73
2022/09/21 00:12:16;;;;;;;4.35;2.15;;;;;;;7.28;100.00;101654.34;5157166;28;20049;-73
2022/09/21 00:14:47;;;;;;;5.22;2.17;;;;;;;7.27;100.00;101646.56;5162207;28;20403;-73
2022/09/21 00:17:17;;;;;;;4.50;2.00;;;;;;;7.32;100.00;101646.53;5163824;28;20030;-73
2022/09/21 00:19:47;;;;;;;3.92;2.08;;;;;;;7.29;100.00;101646.53;5161219;28;20093;-73
2022/09/21 00:22:17;;;;;;;4.30;2.28;;;;;;;7.21;100.00;101652.66;5157882;28;20447;-73
2022/09/21 00:24:48;;;;;;;4.80;2.20;;;;;;;7.17;100.00;101652.66;5161178;28;20037;-73
2022/09/21 00:27:18;;;;;;;7.28;2.10;;;;;;;7.02;100.00;101657.94;5165416;28;20031;-73
2022/09/21 00:29:48;;;;;;;3.17;2.10;;;;;;;6.90;100.00;101648.44;5167298;28;20129;-73
2022/09/21 00:32:19;;;;;;;4.82;2.35;;;;;;;6.94;100.00;101649.31;5168148;28;20062;-73
2022/09/21 00:34:50;;;;;;;4.53;2.33;;;;;;;6.93;100.00;101657.97;5169689;28;20057;-73
2022/09/21 00:37:20;;;;;;;4.78;2.20;;;;;;;7.07;100.00;101648.41;5169166;28;20030;-72
2022/09/21 00:42:26;;;;;;;4.32;2.15;;;;;;;7.19;100.00;101653.50;5175915;28;20053;-77
2022/09/21 00:44:57;;;;;;;5.03;1.98;;;;;;;7.07;100.00;101658.78;5171322;28;20034;-77
2022/09/21 00:47:32;;;;;;;6.30;2.58;;;;;;;7.03;100.00;101655.34;5169187;28;20034;-76
2022/09/21 00:50:07;;;;;;;4.60;2.47;;;;;;;7.18;100.00;101654.38;5172050;28;20041;-76
2022/09/21 00:52:40;;;;;;;3.88;2.00;;;;;;;7.27;100.00;101654.38;5168727;28;20026;-78
2022/09/21 00:55:18;;;;;;;4.32;2.40;;;;;;;7.26;100.00;101657.84;5176098;28;20471;-77
2022/09/21 00:57:55;;;;;;;7.03;2.38;;;;;;;7.09;100.00;101659.66;5169006;28;20499;-77
2022/09/21 01:00:25;;;;;;;5.07;2.38;;;;;;;7.13;100.00;101663.94;5170167;28;20407;-77
2022/09/21 01:03:00;;;;;;;4.78;2.28;;;;;;;6.88;100.00;101667.50;5171131;28;20030;-77
2022/09/21 01:05:30;;;;;;;2.63;1.90;;;;;;;6.92;100.00;101672.69;5169538;28;20034;-77
2022/09/21 01:08:04;;;;;;;4.88;2.05;;;;;;;6.82;100.00;101659.72;5170247;28;20141;-77
2022/09/21 01:10:54;;;;;;;7.25;2.60;;;;;;;6.79;100.00;101667.53;5173234;28;20549;-77
2022/09/21 01:13:42;;;;;;;11.88;2.80;;;;;;;6.64;100.00;101671.06;5176098;28;20092;-75
2022/09/21 01:16:35;;;;;;;9.35;2.75;;;;;;;6.63;100.00;101678.84;5167735;28;20463;-77
2022/09/21 01:19:23;;;;;;;4.80;2.83;;;;;;;6.80;100.00;101672.72;5142936;28;20516;-77
2022/09/21 01:22:17;;;;;;;6.30;2.60;;;;;;;6.77;100.00;101677.06;5170176;28;20041;-76
2022/09/21 01:24:59;;;;;;;5.57;2.40;;;;;;;6.61;100.00;101680.56;5163156;28;20022;-77
2022/09/21 01:27:53;;;;;;;5.55;2.97;;;;;;;6.63;100.00;101678.84;5170047;28;20115;-75
2022/09/21 01:30:24;;;;;;;6.93;3.03;;;;;;;6.84;100.00;101678.78;5170179;28;20041;-77
2022/09/21 01:32:57;;;;;;;6.53;2.95;;;;;;;6.57;100.00;101678.84;5172361;28;20230;-75
2022/09/21 01:35:33;;;;;;;8.60;3.03;;;;;;;6.54;100.00;101682.31;5185926;28;20484;-77
2022/09/21 01:38:08;;;;;;;5.63;3.10;;;;;;;6.59;100.00;101679.72;5170838;28;20503;-77
2022/09/21 01:40:43;;;;;;;4.43;2.42;;;;;;;6.75;100.00;101684.00;5167748;28;20061;-77
2022/09/21 01:43:20;;;;;;;3.65;2.20;;;;;;;6.93;100.00;101681.38;5163904;28;20518;-77
2022/09/21 01:45:54;;;;;;;3.10;2.00;;;;;;;6.86;100.00;101682.22;5170723;28;20025;-77
2022/09/21 01:48:24;;;;;;;5.32;2.40;;;;;;;6.84;100.00;101678.78;5169042;28;20037;-77
2022/09/21 01:50:57;;;;;;;3.40;2.03;;;;;;;6.73;100.00;101677.97;5170860;28;20022;-77
2022/09/21 01:53:35;;;;;;;4.47;2.25;;;;;;;6.63;100.00;101684.03;5165844;28;20065;-77
2022/09/21 01:56:16;;;;;;;3.22;1.67;;;;;;;6.72;100.00;101684.88;5173847;28;20530;-76
2022/09/21 01:59:00;;;;;;;3.70;1.80;;;;;;;6.62;100.00;101690.09;5168825;28;20439;-77
2022/09/21 02:01:36;;;;;;;5.35;1.90;;;;;;;6.49;100.00;101690.97;5169703;28;20038;-76
2022/09/21 02:04:11;;;;;;;3.88;1.90;;;;;;;6.59;100.00;101683.16;5169989;28;20255;-77
2022/09/21 02:06:46;;;;;;;2.70;1.67;;;;;;;6.48;100.00;101694.44;5168423;28;20105;-77
2022/09/21 02:09:16;;;;;;;2.97;1.73;;;;;;;6.44;100.00;101690.13;5170433;28;20030;-77
2022/09/21 02:11:47;;;;;;;3.35;1.65;;;;;;;6.39;100.00;101689.28;5177952;28;20257;-77
2022/09/21 02:14:21;;;;;;;3.38;1.50;;;;;;;6.44;100.00;101692.72;5170815;28;20568;-77
2022/09/21 02:16:55;;;;;;;5.40;1.92;;;;;;;6.46;100.00;101696.16;5168505;28;20399;-77
2022/09/21 02:19:48;;;;;;;4.28;1.92;;;;;;;6.46;100.00;101688.38;5169935;28;20022;-77
2022/09/21 02:22:35;;;;;;;4.30;2.20;;;;;;;6.40;100.00;101691.00;5168936;28;20038;-77
2022/09/21 02:25:14;;;;;;;9.15;2.35;;;;;;;6.47;100.00;101688.41;5161808;28;20560;-77
2022/09/21 02:27:54;;;;;;;3.10;1.92;;;;;;;6.58;100.00;101697.00;5167785;28;20029;-76
2022/09/21 02:30:26;;;;;;;2.90;1.88;;;;;;;6.41;100.00;101692.72;5170335;28;20518;-77
2022/09/21 02:33:14;;;;;;;3.22;1.60;;;;;;;6.29;100.00;101688.38;5171363;28;20041;-76
2022/09/21 02:35:57;;;;;;;3.00;1.60;;;;;;;6.37;100.00;101685.78;5166557;28;20491;-76
2022/09/21 02:38:46;;;;;;;2.85;1.83;;;;;;;6.28;100.00;101689.25;5163725;28;20073;-76
2022/09/21 02:41:30;;;;;;;3.28;1.63;;;;;;;6.47;100.00;101682.31;5171777;28;20026;-77
2022/09/21 02:44:18;;;;;;;2.63;1.75;;;;;;;6.40;100.00;101683.22;5167426;28;20037;-77
2022/09/21 02:46:55;;;;;;;2.97;1.58;;;;;;;6.29;100.00;101682.34;5167294;28;20030;-77
2022/09/21 02:49:34;;;;;;;13.98;7.30;;;;;;;6.27;100.00;101684.06;5168337;28;20365;-76
2022/09/21 02:52:11;;;;;;;28.52;13.82;;;;;;;6.10;100.00;101681.47;5169917;28;20044;-77
2022/09/21 02:54:46;;;;;;;8.65;4.43;;;;;;;6.25;100.00;101691.00;5175480;28;20022;-77
2022/09/21 02:57:20;;;;;;;3.00;1.70;;;;;;;6.18;100.00;101689.25;5161210;28;20113;-77
2022/09/21 02:59:51;;;;;;;2.90;1.63;;;;;;;6.26;100.00;101693.59;5170421;28;20056;-77
2022/09/21 03:02:21;;;;;;;3.40;1.50;;;;;;;6.39;100.00;101694.47;5168584;28;20586;-76
2022/09/21 03:04:53;;;;;;;1.90;1.30;;;;;;;6.40;100.00;101691.84;5168368;28;20445;-77
2022/09/21 03:07:23;;;;;;;3.25;1.58;;;;;;;6.46;100.00;101696.16;5168069;28;20534;-77
2022/09/21 03:09:53;;;;;;;5.68;2.63;;;;;;;6.19;100.00;101697.06;5167705;28;20026;-77
2022/09/21 03:12:25;;;;;;;4.78;2.40;;;;;;;5.92;100.00;101706.56;5168129;28;20029;-77
2022/09/21 03:14:55;;;;;;;6.40;3.40;;;;;;;5.76;100.00;101715.13;5168863;28;20400;-77
2022/09/21 03:17:26;;;;;;;4.50;2.65;;;;;;;5.80;100.00;101717.78;5167355;28;20039;-77
2022/09/21 03:19:56;;;;;;;5.15;3.20;;;;;;;5.97;100.00;101710.00;5164442;28;20056;-77
2022/09/21 03:22:27;;;;;;;4.97;3.00;;;;;;;5.91;100.00;101710.00;5167145;28;20041;-77
2022/09/21 03:24:58;;;;;;;5.78;3.03;;;;;;;5.80;100.00;101709.13;5168794;28;20033;-77
2022/09/21 03:27:28;;;;;;;4.55;2.65;;;;;;;5.74;100.00;101707.34;5161394;28;20014;-77
2022/09/21 03:29:59;;;;;;;5.50;2.78;;;;;;;5.80;100.00;101711.72;5166627;28;20084;-77
2022/09/21 03:32:29;;;;;;;3.60;2.60;;;;;;;5.78;100.00;101708.22;5168878;28;20026;-77
2022/09/21 03:34:59;;;;;;;4.70;2.70;;;;;;;5.90;100.00;101705.69;5166859;28;20037;-77
2022/09/21 03:37:30;;;;;;;6.65;2.90;;;;;;;5.99;100.00;101708.28;5167933;28;20483;-75
2022/09/21 03:40:00;;;;;;;4.47;2.80;;;;;;;6.18;100.00;101720.41;5164887;28;20455;-75
2022/09/21 03:42:30;;;;;;;5.47;2.72;;;;;;;6.20;100.00;101706.56;5167153;28;20029;-74
2022/09/21 03:45:01;;;;;;;6.47;2.80;;;;;;;5.98;100.00;101711.75;5177581;28;20030;-75
2022/09/21 03:47:31;;;;;;;5.05;2.88;;;;;;;5.90;100.00;101716.91;5165231;28;20129;-75
2022/09/21 03:50:02;;;;;;;6.72;3.13;;;;;;;5.94;100.00;101718.66;5168678;28;20137;-75
2022/09/21 03:52:34;;;;;;;7.82;2.63;;;;;;;5.95;100.00;101716.94;5182106;28;20026;-77
2022/09/21 03:55:07;;;;;;;4.25;2.80;;;;;;;5.96;100.00;101714.34;5157215;28;20512;-77
2022/09/21 03:57:38;;;;;;;3.72;2.33;;;;;;;6.09;100.00;101717.81;5164201;28;20038;-77
2022/09/21 04:00:09;;;;;;;3.75;2.50;;;;;;;6.18;100.00;101726.47;5170996;28;20088;-77
2022/09/21 04:02:40;;;;;;;4.32;2.40;;;;;;;6.18;100.00;101721.28;5166420;28;20041;-76
2022/09/21 04:05:13;;;;;;;4.40;2.53;;;;;;;6.08;100.00;101723.88;5169322;28;20026;-77
2022/09/21 04:07:44;;;;;;;4.85;2.83;;;;;;;6.11;100.00;101729.91;5169146;28;20109;-77
2022/09/21 04:10:18;;;;;;;5.55;2.80;;;;;;;6.18;100.00;101723.88;5171924;28;20026;-77
2022/09/21 04:12:48;;;;;;;6.22;3.08;;;;;;;6.14;100.00;101721.28;5172218;28;20022;-77
2022/09/21 04:15:19;;;;;;;6.55;3.25;;;;;;;6.17;100.00;101723.84;5164700;28;20081;-78
2022/09/21 04:17:51;;;;;;;6.15;3.17;;;;;;;5.97;100.00;101716.09;5169125;28;20034;-77
2022/09/21 04:20:21;;;;;;;4.97;3.17;;;;;;;6.06;100.00;101725.59;5186200;28;20507;-77
2022/09/21 04:22:51;;;;;;;6.00;3.60;;;;;;;6.03;100.00;101735.94;5170249;28;20278;-77
2022/09/21 04:25:22;;;;;;;5.70;3.33;;;;;;;5.78;100.00;101729.84;5169665;28;20373;-76
2022/09/21 04:27:52;;;;;;;5.10;3.28;;;;;;;5.82;100.00;101730.72;5170955;28;20026;-77
2022/09/21 04:30:22;;;;;;;5.55;2.95;;;;;;;5.65;100.00;101722.03;5170654;28;20492;-77
2022/09/21 04:32:53;;;;;;;12.27;2.50;;;;;;;5.36;100.00;101725.38;5170583;28;20223;-75
2022/09/21 04:35:23;;;;;;;4.63;2.10;;;;;;;5.28;100.00;101740.91;5174640;28;20407;-77
2022/09/21 04:37:55;;;;;;;3.40;2.20;;;;;;;5.28;100.00;101734.84;5169043;28;20026;-76
2022/09/21 04:40:25;;;;;;;3.80;2.47;;;;;;;5.23;100.00;101732.25;5167215;28;20037;-77
2022/09/21 04:42:55;;;;;;;5.20;3.13;;;;;;;5.24;100.00;101728.81;5169467;28;20026;-77
2022/09/21 04:45:26;;;;;;;5.63;3.65;;;;;;;5.31;100.00;101729.69;5167670;28;20026;-77
2022/09/21 04:47:56;;;;;;;6.25;3.78;;;;;;;5.36;100.00;101740.94;5168315;28;20396;-77
2022/09/21 04:50:26;;;;;;;10.13;5.15;;;;;;;5.26;100.00;101736.56;5182469;28;20105;-77
2022/09/21 04:52:57;;;;;;;8.57;4.82;;;;;;;5.44;100.00;101732.34;5172875;28;20026;-77
2022/09/21 04:55:27;;;;;;;10.45;4.03;;;;;;;5.51;100.00;101739.25;5169956;28;20025;-77
2022/09/21 04:57:57;;;;;;;9.82;4.20;;;;;;;5.49;100.00;101741.88;5168125;28;20138;-77
2022/09/21 05:00:28;;;;;;;6.20;3.60;;;;;;;5.36;100.00;101738.34;5171458;28;20094;-76
2022/09/21 05:02:58;;;;;;;5.32;3.28;;;;;;;5.35;100.00;101744.38;5171522;28;20052;-77
2022/09/21 05:05:28;;;;;;;4.63;3.20;;;;;;;5.56;100.00;101741.00;5167033;28;20037;-77
2022/09/21 05:07:59;;;;;;;4.88;3.10;;;;;;;5.61;100.00;101744.47;5170360;28;20030;-76
2022/09/21 05:10:29;;;;;;;4.70;2.97;;;;;;;5.62;100.00;101747.94;5167531;28;20046;-76
2022/09/21 05:12:59;;;;;;;8.40;3.40;;;;;;;5.65;100.00;101747.94;5163944;28;20041;-76
2022/09/21 05:15:29;;;;;;;6.57;3.90;;;;;;;5.57;100.00;101747.91;5169103;28;20499;-76
2022/09/21 05:18:00;;;;;;;5.18;3.50;;;;;;;5.47;100.00;101750.47;5167976;28;20264;-77
2022/09/21 05:20:30;;;;;;;8.50;4.10;;;;;;;5.47;100.00;101758.25;5169250;28;20077;-77
2022/09/21 05:23:01;;;;;;;6.72;4.15;;;;;;;5.64;100.00;101756.59;5171425;28;20148;-75
2022/09/21 05:25:31;;;;;;;6.80;4.13;;;;;;;5.46;100.00;101757.41;5173032;28;20117;-75
2022/09/21 05:28:02;;;;;;;8.82;4.00;;;;;;;5.61;100.00;101757.44;5169588;28;20400;-79
2022/09/21 05:30:32;;;;;;;5.50;3.38;;;;;;;5.95;100.00;101763.63;5167110;28;20388;-77
2022/09/21 05:33:04;;;;;;;6.60;3.40;;;;;;;5.91;100.00;101767.94;5171655;28;20038;-77
2022/09/21 05:35:39;;;;;;;4.40;3.00;;;;;;;5.72;100.00;101762.69;5167681;28;20040;-76
2022/09/21 05:38:16;;;;;;;15.27;2.85;;;;;;;5.56;100.00;101766.09;5163918;28;20030;-78
2022/09/21 05:40:49;;;;;;;13.82;3.10;;;;;;;5.81;100.00;101778.28;5165086;28;20038;-77
2022/09/21 05:43:19;;;;;;;7.85;3.25;;;;;;;5.64;100.00;101778.22;5178180;28;20029;-77
2022/09/21 05:46:05;;;;;;;6.75;2.95;;;;;;;5.77;100.00;101779.97;5172199;28;20022;-77
2022/09/21 05:48:41;;;;;;;7.65;3.38;;;;;;;5.94;100.00;101772.28;5166349;28;20116;-77
2022/09/21 05:51:24;;;;;;;13.77;3.38;;;;;;;5.86;100.00;101764.47;5168227;28;20034;-77
2022/09/21 05:54:18;;;;;;;8.13;3.30;;;;;;;5.91;100.00;101780.06;5179913;28;20112;-77
2022/09/21 05:57:14;;;;;;;5.18;3.15;;;;;;;5.98;100.00;101779.19;5151396;28;20049;-77
2022/09/21 06:00:14;;;;;;;5.10;3.60;;;;;;;6.15;100.00;101777.50;5168138;28;20031;-77
2022/09/21 06:03:02;;;;;;;5.00;3.40;;;;;;;6.20;100.00;101773.16;5169009;28;20507;-77
2022/09/21 06:05:33;;;;;;;5.15;3.53;;;;;;;6.21;100.00;101772.31;5168771;28;20468;-76
2022/09/21 06:08:03;;;;;;;5.13;3.53;;;;;;;6.25;100.00;101777.50;5170061;28;20036;-77
2022/09/21 06:10:34;;;;;;;5.03;3.55;;;;;;;6.42;100.00;101782.72;5169429;28;20128;-77
2022/09/21 06:13:04;;;;;;;5.95;3.78;;;;;;;6.55;100.00;101781.84;5177911;28;20279;-77
2022/09/21 06:15:37;;;;;;;6.50;3.47;;;;;;;6.72;100.00;101783.59;5172301;28;20614;-77
2022/09/21 06:18:08;;;;;;;6.50;3.47;;;;;;;6.93;100.00;101783.56;5169364;28;20288;-77
2022/09/21 06:20:39;;;;;;;6.47;3.45;;;;;;;6.90;100.00;101780.13;5166217;28;20026;-77
2022/09/21 06:23:11;;;;;;;8.05;4.13;;;;;;;6.99;100.00;101785.28;5168064;28;20041;-77
2022/09/21 06:25:42;;;;;;;7.78;3.88;;;;;;;7.08;100.00;101788.72;5164864;28;20022;-77
2022/09/21 06:28:12;;;;;;;8.10;4.07;;;;;;;7.33;100.00;101788.66;5165364;28;20389;-77
2022/09/21 06:30:43;;;;;;;5.03;3.40;;;;;;;7.33;100.00;101790.41;5176920;28;20028;-77
2022/09/21 06:33:19;;;;;;;7.15;4.05;;;;;;;7.53;100.00;101799.00;5171550;28;20310;-77
2022/09/21 06:35:54;;;;;;;5.78;3.95;;;;;;;7.44;100.00;101794.69;5169854;28;20394;-78
2022/09/21 06:38:26;;;;;;;6.07;3.83;;;;;;;7.42;100.00;101795.56;5166299;28;20089;-78
2022/09/21 06:41:04;;;;;;;7.25;4.10;;;;;;;7.72;100.00;101792.84;5169531;28;20057;-77
2022/09/21 06:43:34;;;;;;;7.90;4.32;;;;;;;7.72;100.00;101788.50;5213045;22;20051;-74
2022/09/21 06:46:05;;;;;;;7.65;4.50;;;;;;;7.76;100.00;101798.03;5137863;28;20034;-74
2022/09/21 06:48:35;;;;;;;6.55;4.25;;;;;;;8.08;100.00;101793.50;5137606;28;20109;-75
2022/09/21 06:51:05;;;;;;;9.02;4.50;;;;;;;8.15;100.00;101792.59;5138369;28;20027;-74
2022/09/21 06:53:36;;;;;;;7.88;4.32;;;;;;;8.23;100.00;101795.19;5138109;28;20047;-72
2022/09/21 06:56:08;;;;;;;7.15;4.28;;;;;;;8.37;100.00;101796.81;5136677;28;20034;-74
2022/09/21 06:58:38;;;;;;;7.80;4.45;;;;;;;8.53;100.00;101798.44;5132809;28;20381;-74
2022/09/21 07:01:11;;;;;;;9.95;5.78;;;;;;;9.03;100.00;101804.06;5138578;28;20082;-74
2022/09/21 07:03:42;;;;;;;16.13;6.03;;;;;;;9.45;100.00;101796.66;5137282;28;20026;-74
2022/09/21 07:06:14;;;;;;;16.90;5.75;;;;;;;9.68;100.00;101793.78;5137925;28;20030;-72
2022/09/21 07:08:46;;;;;;;13.93;6.78;;;;;;;9.94;100.00;101791.69;5135630;28;20031;-74
2022/09/21 07:11:16;;;;;;;13.63;6.60;;;;;;;10.19;100.00;101790.50;5136862;28;20035;-74
2022/09/21 07:13:46;;;;;;;13.10;5.80;;;;;;;12.20;100.00;101782.31;5137597;28;20058;-74
2022/09/21 07:16:18;;;;;;;8.82;4.57;;;;;;;14.45;100.00;101782.19;5137199;28;20097;-75
2022/09/21 07:18:48;;;;;;;10.32;4.10;;;;;;;15.84;85.48;101775.44;5137290;28;20500;-75
2022/09/21 07:21:19;;;;;;;9.02;3.88;;;;;;;16.38;79.57;101775.97;5138033;28;20093;-75
2022/09/21 07:23:49;;;;;;;6.13;3.22;;;;;;;18.36;73.14;101775.03;5136860;28;20030;-75
2022/09/21 07:26:21;;;;;;;7.65;3.60;;;;;;;18.02;69.72;101774.88;5137112;28;20026;-75
2022/09/21 07:28:51;;;;;;;8.02;3.08;;;;;;;18.42;73.83;101774.72;5136743;28;20145;-75
2022/09/21 07:31:22;;;;;;;7.60;3.35;;;;;;;18.83;69.96;101779.69;5137855;28;20039;-76
2022/09/21 07:33:57;;;;;;;7.60;3.35;;;;;;;17.64;74.22;101778.44;5137225;28;20037;-76
2022/09/21 07:36:27;;;;;;;6.95;3.10;;;;;;;17.97;70.97;101772.44;5137395;28;20069;-76
2022/09/21 07:38:57;;;;;;;7.80;3.17;;;;;;;17.90;72.64;101778.97;5135082;28;20027;-73
2022/09/21 07:41:28;;;;;;;7.38;2.97;;;;;;;19.44;66.59;101767.69;5137430;28;20436;-73
2022/09/21 07:43:58;;;;;;;15.70;3.60;;;;;;;19.45;69.67;101775.53;5137332;28;20031;-74
2022/09/21 07:46:28;;;;;;;10.15;3.50;;;;;;;18.04;73.66;101778.31;5137152;28;20508;-72
2022/09/21 07:48:59;;;;;;;8.15;2.80;;;;;;;19.38;71.70;101775.94;5136824;28;20043;-73
2022/09/21 07:51:30;;;;;;;9.07;3.20;;;;;;;18.15;71.33;101776.03;5137344;28;20488;-73
2022/09/21 07:54:00;;;;;;;12.52;3.70;;;;;;;18.46;74.16;101778.94;5137076;28;20050;-73
2022/09/21 07:56:30;;;;;;;7.37;3.37;;;;;;;19.67;66.35;101773.47;5136989;28;20753;-72
2022/09/21 07:59:07;;;;;;;8.10;2.88;;;;;;;18.84;71.43;101776.97;5136473;28;20314;-73
2022/09/21 08:01:40;;;;;;;8.05;3.05;;;;;;;20.44;67.66;101778.00;5138086;28;20459;-73
2022/09/21 08:04:10;;;;;;;7.55;3.00;;;;;;;19.90;66.37;101775.72;5133983;28;20035;-73
2022/09/21 08:06:41;;;;;;;7.60;2.75;;;;;;;20.70;68.33;101775.53;5136688;28;20084;-73
2022/09/21 08:09:11;;;;;;;9.13;2.70;;;;;;;21.40;65.09;101773.09;5136874;28;20110;-73
2022/09/21 08:11:43;;;;;;;7.07;3.10;;;;;;;20.40;66.13;101776.47;5136768;28;20031;-73
2022/09/21 08:14:18;;;;;;;7.88;2.80;;;;;;;20.19;67.14;101780.34;5137066;28;20300;-73
2022/09/21 08:16:48;;;;;;;9.13;3.60;;;;;;;19.19;69.05;101780.50;5136481;28;20089;-73
2022/09/21 08:19:19;;;;;;;8.25;2.67;;;;;;;21.39;64.58;101770.53;5136870;28;20303;-73
2022/09/21 08:21:50;;;;;;;9.50;3.00;;;;;;;20.24;70.27;101778.25;5135259;28;20085;-72
2022/09/21 08:24:20;;;;;;;8.80;3.35;;;;;;;19.40;72.69;101780.25;5136424;28;20027;-73
2022/09/21 08:26:54;;;;;;;7.32;2.75;;;;;;;21.81;64.92;101762.56;5136001;28;20065;-73
2022/09/21 08:29:25;;;;;;;6.20;2.80;;;;;;;21.40;65.32;101769.59;5137099;28;20035;-73
2022/09/21 08:31:56;;;;;;;6.10;2.75;;;;;;;20.50;67.67;101776.78;5119722;28;20041;-73
2022/09/21 08:34:26;;;;;;;12.63;3.28;;;;;;;19.80;73.05;101778.97;5137010;28;20027;-73
2022/09/21 08:36:57;;;;;;;10.23;3.25;;;;;;;18.90;74.32;101781.97;5134487;28;20034;-76
2022/09/21 08:39:27;;;;;;;10.48;3.22;;;;;;;19.27;72.10;101781.81;5136529;28;20448;-76
2022/09/21 08:42:26;;;;;;;8.73;2.65;;;;;;;21.30;65.99;101771.06;5135231;28;20035;-74
2022/09/21 08:45:06;;;;;;;9.02;3.20;;;;;;;20.24;68.14;101780.03;5137906;28;20035;-75
2022/09/21 08:47:52;;;;;;;6.57;2.60;;;;;;;21.32;66.61;101764.72;5136504;28;20031;-75
2022/09/21 08:50:42;;;;;;;;;;;;;;;19.76;70.41;101780.94;5134309;28;20484;-75
2022/09/21 08:53:32;;;;;;;8.18;2.90;;;;;;;22.05;65.74;101774.34;5133607;28;20165;-75
2022/09/21 08:56:02;;;;;;;8.15;2.80;;;;;;;20.87;66.46;101774.59;5140606;28;20023;-74
2022/09/21 08:58:35;;;;;;;8.02;2.70;;;;;;;21.17;67.55;101780.72;5137941;28;20266;-74
2022/09/21 09:01:11;;;;;;;9.23;3.20;;;;;;;20.14;69.99;101786.84;5140277;28;20035;-74
2022/09/21 09:03:50;;;;;;;7.15;2.38;;;;;;;22.58;63.43;101775.25;5136608;28;20034;-74
2022/09/21 09:06:39;;;;;;;8.82;3.30;;;;;;;20.05;68.83;101793.50;5139832;28;20031;-74
2022/09/21 09:09:38;;;;;;;7.30;2.33;;;;;;;20.41;67.87;101786.13;5135930;28;20035;-74
2022/09/21 09:12:27;;;;;;;8.85;3.47;;;;;;;20.57;68.19;101786.97;5128788;28;20106;-74
2022/09/21 09:15:13;;;;;;;6.47;2.90;;;;;;;20.25;65.54;101787.94;5138951;28;20054;-75
2022/09/21 09:18:07;;;;;;;10.38;2.90;;;;;;;18.70;74.90;101793.63;5135292;28;20031;-74
2022/09/21 09:20:44;;;;;;;8.13;3.08;;;;;;;18.22;78.41;101786.25;5139042;28;20027;-74
2022/09/21 09:23:50;;;;;;;8.98;2.83;;;;;;;18.58;74.91;101786.28;5137716;28;20042;-74
2022/09/21 09:26:29;;;;;;;8.05;2.90;;;;;;;18.54;73.70;101785.56;5138399;28;20035;-74
2022/09/21 09:29:15;;;;;;;7.15;2.60;;;;;;;18.63;75.24;101781.59;5137960;28;20042;-74
2022/09/21 09:31:47;;;;;;;9.63;2.90;;;;;;;18.42;75.14;101782.66;5135542;28;20536;-74
2022/09/21 09:34:21;;;;;;;9.10;3.03;;;;;;;16.86;79.80;101792.44;5138786;28;20572;-74
2022/09/21 09:37:04;;;;;;;10.77;3.28;;;;;;;17.11;81.73;101786.06;5136186;28;20121;-74
2022/09/21 09:39:34;;;;;;;10.55;2.80;;;;;;;17.77;77.80;101784.88;5137845;28;20027;-74
2022/09/21 09:42:31;;;;;;;11.65;3.22;;;;;;;17.78;78.38;101787.47;5138200;28;20487;-74
2022/09/21 09:45:30;;;;;;;10.50;3.20;;;;;;;17.91;76.56;101788.63;5143552;28;20057;-74
2022/09/21 09:48:09;;;;;;;10.93;3.15;;;;;;;17.69;77.63;101784.38;5146697;28;20127;-74
2022/09/21 09:50:40;;;;;;;10.40;3.17;;;;;;;17.85;78.23;101788.88;5146185;28;20033;-74
2022/09/21 09:53:13;;;;;;;12.98;3.08;;;;;;;17.90;77.58;101783.38;5136792;28;20251;-74
2022/09/21 09:55:48;;;;;;;12.80;3.28;;;;;;;17.51;80.88;101778.13;5137342;28;20041;-74
2022/09/21 09:58:21;;;;;;;8.95;2.90;;;;;;;17.55;80.54;101778.84;5136431;28;20065;-74
2022/09/21 10:00:54;;;;;;;12.73;2.88;;;;;;;17.55;77.50;101776.19;5139516;28;20042;-74
2022/09/21 10:03:26;;;;;;;9.68;2.75;;;;;;;17.68;77.64;101780.84;5138192;28;20034;-74
2022/09/21 10:05:57;;;;;;;11.98;2.83;;;;;;;17.28;79.76;101783.53;5138453;28;20637;-74
2022/09/21 10:08:38;;;;;;;10.93;2.65;;;;;;;16.93;77.96;101799.19;5137171;28;20035;-73
2022/09/21 10:11:11;;;;;;;10.63;2.60;;;;;;;17.13;79.62;101786.00;5139378;28;20062;-74
2022/09/21 10:13:44;;;;;;;8.95;2.70;;;;;;;17.18;80.25;101791.94;5136627;28;20053;-74
2022/09/21 10:16:20;;;;;;;9.52;3.15;;;;;;;17.26;79.74;101789.81;5139948;28;20090;-74
2022/09/21 10:19:00;;;;;;;13.57;2.92;;;;;;;17.25;80.35;101785.44;5138769;28;20249;-74
2022/09/21 10:21:36;;;;;;;7.70;2.55;;;;;;;17.14;79.63;101788.56;5139382;28;20038;-73
2022/09/21 10:24:14;;;;;;;8.98;2.90;;;;;;;17.00;78.26;101790.09;5137435;28;20026;-73
2022/09/21 10:27:01;;;;;;;9.30;2.72;;;;;;;16.98;78.94;101779.56;5137206;28;20485;-74
2022/09/21 10:29:43;;;;;;;11.63;2.88;;;;;;;17.04;81.42;101781.09;5136675;28;20026;-74
2022/09/21 10:32:27;;;;;;;6.93;1.90;;;;;;;17.35;77.58;101773.59;5133250;28;20066;-73
2022/09/21 10:35:04;;;;;;;8.75;2.10;;;;;;;17.57;75.94;101772.56;5137934;28;20122;-72
2022/09/21 10:37:37;;;;;;;4.93;1.52;;;;;;;17.08;72.46;101775.63;5135214;28;20401;-73
2022/09/21 10:40:16;;;;;;;6.05;1.80;;;;;;;17.26;72.35;101771.31;5136543;28;20061;-74
2022/09/21 10:42:49;;;;;;;7.75;2.00;;;;;;;17.05;74.62;101778.41;5134643;28;20093;-72
2022/09/21 10:45:25;;;;;;;5.68;1.58;;;;;;;16.77;75.44;101776.13;5137638;28;20065;-74
2022/09/21 10:48:04;;;;;;;8.75;1.85;;;;;;;16.54;78.99;101787.63;5133264;28;20070;-74
2022/09/21 10:50:48;;;;;;;6.53;1.73;;;;;;;16.67;77.07;101777.41;5137396;28;20053;-74
2022/09/21 10:53:28;;;;;;;6.47;1.58;;;;;;;16.64;74.82;101773.16;5134378;28;20619;-74
2022/09/21 10:56:15;;;;;;;5.28;1.42;;;;;;;16.85;74.66;101778.41;5138069;28;20038;-73
2022/09/21 10:59:19;;;;;;;5.68;1.60;;;;;;;16.77;73.68;101777.84;5134056;28;20193;-73
2022/09/21 11:01:52;;;;;;;9.25;1.83;;;;;;;16.97;75.57;101763.81;5134922;28;20031;-73
2022/09/21 11:04:38;;;;;;;9.88;1.77;;;;;;;16.82;76.13;101753.88;5137031;28;20034;-74
2022/09/21 11:07:14;;;;;;;6.05;1.48;;;;;;;16.72;77.09;101757.81;5137482;28;20401;-74
2022/09/21 11:10:10;;;;;;;7.18;1.70;;;;;;;16.74;74.48;101755.97;5133302;28;20038;-74
2022/09/21 11:13:15;;;;;;;8.63;1.67;;;;;;;16.77;75.42;101752.38;5135023;28;20389;-74
2022/09/21 11:15:54;;;;;;;7.03;1.95;;;;;;;16.26;76.25;101752.69;5137722;28;20084;-73
2022/09/21 11:18:39;;;;;;;4.15;1.45;;;;;;;16.70;74.78;101750.91;5135109;28;20231;-74
2022/09/21 11:21:09;;;;;;;8.93;1.52;;;;;;;17.08;74.70;101750.97;5134438;28;20027;-74
2022/09/21 11:23:54;;;;;;;6.53;1.38;;;;;;;17.11;74.67;101753.50;5137334;28;20042;-74
2022/09/21 11:26:31;;;;;;;6.45;1.50;;;;;;;17.16;74.38;101759.44;5135388;28;20037;-74
2022/09/21 11:29:20;;;;;;;6.60;1.30;;;;;;;16.94;73.19;101750.75;5139394;28;20122;-74
2022/09/21 11:31:54;;;;;;;5.03;1.33;;;;;;;16.58;74.68;101764.63;5146671;28;20113;-73
2022/09/21 11:34:56;;;;;;;7.95;1.58;;;;;;;16.71;72.97;101761.41;5145325;28;20043;-73
2022/09/21 11:37:53;;;;;;;9.93;1.52;;;;;;;16.84;74.96;101757.31;5119827;28;20221;-74
2022/09/21 11:40:40;;;;;;;4.20;0.95;;;;;;;16.87;73.24;101758.06;5135269;28;20104;-74
2022/09/21 11:43:25;;;;;;;5.50;1.17;;;;;;;16.49;72.86;101765.84;5136727;28;20114;-72
2022/09/21 11:46:07;;;;;;;6.03;1.05;;;;;;;16.41;73.90;101767.94;5138446;28;20596;-73
2022/09/21 11:48:46;;;;;;;7.15;1.27;;;;;;;16.44;73.73;101757.28;5136579;28;20569;-73
2022/09/21 11:51:37;;;;;;;5.05;1.05;;;;;;;16.51;76.32;101757.84;5134940;28;20039;-72
2022/09/21 11:54:24;;;;;;;5.47;1.17;;;;;;;16.47;75.26;101756.25;5137523;28;20030;-74
2022/09/21 11:57:00;;;;;;;6.38;1.23;;;;;;;16.48;75.27;101753.56;5134740;28;20085;-74
2022/09/21 11:59:30;;;;;;;7.13;1.00;;;;;;;16.47;75.47;101746.59;5137188;28;20093;-73
2022/09/21 12:02:25;;;;;;;4.17;1.10;;;;;;;16.26;77.05;101747.44;5137394;28;20074;-73
2022/09/21 12:05:33;;;;;;;7.20;1.15;;;;;;;15.89;75.79;101744.50;5135347;28;20273;-74
2022/09/21 12:08:32;;;;;;;7.10;1.35;;;;;;;16.07;76.77;101733.22;5135718;28;20046;-74